createdAt,value
2017-07-10T00:01:33.064Z,92.10
2017-07-10T00:03:59.342Z,92.20
2017-07-10T00:06:25.652Z,93.80
2017-07-10T00:08:51.898Z,93.70
2017-07-10T00:11:18.188Z,93.80
2017-07-10T00:13:44.469Z,93.60
2017-07-10T00:16:10.830Z,93.20
2017-07-10T00:18:37.082Z,93.70
2017-07-10T00:21:03.392Z,93.70
2017-07-10T00:23:29.670Z,93.50
2017-07-10T00:25:55.955Z,92.10
2017-07-10T00:28:22.192Z,92.00
2017-07-10T00:30:48.487Z,91.60
2017-07-10T00:33:14.765Z,92.40
2017-07-10T00:35:41.043Z,92.20
2017-07-10T00:38:07.340Z,92.50
2017-07-10T00:40:33.981Z,91.50
2017-07-10T00:43:00.270Z,91.50
2017-07-10T00:45:26.544Z,92.70
2017-07-10T00:47:52.843Z,93.20
2017-07-10T00:50:19.096Z,94.00
2017-07-10T00:52:45.366Z,92.80
2017-07-10T00:55:11.613Z,92.40
2017-07-10T00:57:37.912Z,92.40
2017-07-10T01:00:04.212Z,92.50
2017-07-10T01:02:30.835Z,92.70
2017-07-10T01:04:57.083Z,92.70
2017-07-10T01:07:23.353Z,92.40
2017-07-10T01:09:49.631Z,92.90
2017-07-10T01:12:15.914Z,92.20
2017-07-10T01:14:42.166Z,92.50
2017-07-10T01:17:08.425Z,92.10
2017-07-10T01:19:34.696Z,91.40
2017-07-10T01:22:00.982Z,90.60
2017-07-10T01:24:27.226Z,90.10
2017-07-10T01:26:53.480Z,90.30
2017-07-10T01:29:19.730Z,90.20
2017-07-10T01:31:45.989Z,90.10
2017-07-10T01:34:12.634Z,90.70
2017-07-10T01:36:39.277Z,90.90
2017-07-10T01:39:05.553Z,90.90
2017-07-10T01:41:32.199Z,90.70
2017-07-10T01:43:58.482Z,90.00
2017-07-10T01:46:24.797Z,90.20
2017-07-10T01:48:51.561Z,90.30
2017-07-10T01:51:17.845Z,90.30
2017-07-10T01:53:44.106Z,90.50
2017-07-10T01:56:10.409Z,90.00
2017-07-10T01:58:36.675Z,90.50
2017-07-10T02:01:02.952Z,90.30
2017-07-10T02:03:29.226Z,89.40
2017-07-10T02:05:55.507Z,90.30
2017-07-10T02:08:21.896Z,91.50
2017-07-10T02:10:48.164Z,91.70
2017-07-10T02:13:14.436Z,91.60
2017-07-10T02:15:40.707Z,91.60
2017-07-10T02:18:06.997Z,91.30
2017-07-10T02:20:33.252Z,91.20
2017-07-10T02:22:59.545Z,91.30
2017-07-10T02:25:25.795Z,90.60
2017-07-10T02:27:52.057Z,90.90
2017-07-10T02:30:18.310Z,89.60
2017-07-10T02:32:44.578Z,90.00
2017-07-10T02:35:10.832Z,90.50
2017-07-10T02:37:37.099Z,89.90
2017-07-10T02:40:03.408Z,89.30
2017-07-10T02:42:29.682Z,90.90
2017-07-10T02:44:55.945Z,91.20
2017-07-10T02:47:22.231Z,91.40
2017-07-10T02:49:48.534Z,90.80
2017-07-10T02:52:14.801Z,90.40
2017-07-10T02:54:41.089Z,89.90
2017-07-10T02:57:07.333Z,90.30
2017-07-10T02:59:33.617Z,89.60
2017-07-10T03:01:59.910Z,90.20
2017-07-10T03:04:26.164Z,90.00
2017-07-10T03:06:52.395Z,89.50
2017-07-10T03:09:18.697Z,90.50
2017-07-10T03:11:44.965Z,91.10
2017-07-10T03:14:11.295Z,90.30
2017-07-10T03:16:37.583Z,89.60
2017-07-10T03:19:03.871Z,89.40
2017-07-10T03:21:30.125Z,89.00
2017-07-10T03:23:56.409Z,88.60
2017-07-10T03:26:22.652Z,88.70
2017-07-10T03:28:48.920Z,88.90
2017-07-10T03:31:15.226Z,88.70
2017-07-10T03:33:41.512Z,88.50
2017-07-10T03:36:07.764Z,88.50
2017-07-10T03:38:34.057Z,88.20
2017-07-10T03:41:00.339Z,87.70
2017-07-10T03:43:26.598Z,88.10
2017-07-10T03:45:53.229Z,88.00
2017-07-10T03:48:19.873Z,88.00
2017-07-10T03:50:46.502Z,87.40
2017-07-10T03:53:12.785Z,87.40
2017-07-10T03:55:39.064Z,88.40
2017-07-10T03:58:05.327Z,88.40
2017-07-10T04:00:31.595Z,88.50
2017-07-10T04:02:57.847Z,88.50
2017-07-10T04:05:24.143Z,88.70
2017-07-10T04:07:50.400Z,89.30
2017-07-10T04:10:16.655Z,89.20
2017-07-10T04:12:42.950Z,89.40
2017-07-10T04:15:09.228Z,89.10
2017-07-10T04:17:35.475Z,88.90
2017-07-10T04:20:01.751Z,89.10
2017-07-10T04:22:27.985Z,89.10
2017-07-10T04:24:54.239Z,89.40
2017-07-10T04:27:20.484Z,89.00
2017-07-10T04:29:46.768Z,89.10
2017-07-10T04:32:13.043Z,89.00
2017-07-10T04:34:39.376Z,88.10
2017-07-10T04:37:05.639Z,87.80
2017-07-10T04:39:31.922Z,87.40
2017-07-10T04:41:58.197Z,87.20
2017-07-10T04:44:24.486Z,87.30
2017-07-10T04:46:50.755Z,88.00
2017-07-10T04:49:17.033Z,87.90
2017-07-10T04:51:43.302Z,87.20
2017-07-10T04:54:09.962Z,87.60
2017-07-10T04:56:36.221Z,87.80
2017-07-10T04:59:02.474Z,87.80
2017-07-10T05:01:28.797Z,87.20
2017-07-10T05:03:55.071Z,87.10
2017-07-10T05:06:21.361Z,86.80
2017-07-10T05:08:47.641Z,86.30
2017-07-10T05:11:14.316Z,86.20
2017-07-10T05:13:40.560Z,86.30
2017-07-10T05:16:06.822Z,86.40
2017-07-10T05:18:33.082Z,86.90
2017-07-10T05:20:59.392Z,86.70
2017-07-10T05:23:25.669Z,87.10
2017-07-10T05:25:51.939Z,87.20
2017-07-10T05:28:18.225Z,87.30
2017-07-10T05:30:44.533Z,86.70
2017-07-10T05:33:10.822Z,86.70
2017-07-10T05:35:37.124Z,87.00
2017-07-10T05:38:03.433Z,86.50
2017-07-10T05:40:29.737Z,86.20
2017-07-10T05:42:56.004Z,86.00
2017-07-10T05:45:22.298Z,86.30
2017-07-10T05:47:48.957Z,85.00
2017-07-10T05:50:15.239Z,85.00
2017-07-10T05:52:41.509Z,85.20
2017-07-10T05:55:07.812Z,84.80
2017-07-10T05:57:34.121Z,85.00
2017-07-10T06:00:00.413Z,85.70
2017-07-10T06:02:28.347Z,85.70
2017-07-10T06:04:54.619Z,85.50
2017-07-10T06:07:20.959Z,85.40
2017-07-10T06:09:47.527Z,84.70
2017-07-10T06:12:13.806Z,84.50
2017-07-10T06:14:40.091Z,83.90
2017-07-10T06:17:06.396Z,83.30
2017-07-10T06:19:32.688Z,84.10
2017-07-10T06:21:59.018Z,83.50
2017-07-10T06:24:25.323Z,85.20
2017-07-10T06:26:51.628Z,83.80
2017-07-10T06:29:17.911Z,85.90
2017-07-10T06:31:44.180Z,86.50
2017-07-10T06:34:10.437Z,87.20
2017-07-10T06:36:36.749Z,87.20
2017-07-10T06:39:03.533Z,87.10
2017-07-10T06:41:29.822Z,87.10
2017-07-10T06:43:56.092Z,87.80
2017-07-10T06:46:22.378Z,87.50
2017-07-10T06:48:48.682Z,86.30
2017-07-10T06:51:14.983Z,86.90
2017-07-10T06:53:41.249Z,87.50
2017-07-10T06:56:07.524Z,85.50
2017-07-10T06:58:33.779Z,85.70
2017-07-10T07:01:00.101Z,86.90
2017-07-10T07:03:26.447Z,86.50
2017-07-10T07:05:52.755Z,86.30
2017-07-10T07:08:19.683Z,83.80
2017-07-10T07:10:45.983Z,83.80
2017-07-10T07:13:12.258Z,83.60
2017-07-10T07:15:38.955Z,83.50
2017-07-10T07:18:05.218Z,83.90
2017-07-10T07:20:31.518Z,83.20
2017-07-10T07:22:57.856Z,83.20
2017-07-10T07:25:24.154Z,83.60
2017-07-10T07:27:50.513Z,80.60
2017-07-10T07:30:16.793Z,81.10
2017-07-10T07:32:43.086Z,81.90
2017-07-10T07:35:09.771Z,81.90
2017-07-10T07:37:36.066Z,81.90
2017-07-10T07:40:02.386Z,81.20
2017-07-10T07:42:29.315Z,80.20
2017-07-10T07:44:55.587Z,80.20
2017-07-10T07:47:21.857Z,81.00
2017-07-10T07:49:48.190Z,80.10
2017-07-10T07:52:14.510Z,79.10
2017-07-10T07:54:40.882Z,79.80
2017-07-10T07:57:07.192Z,81.10
2017-07-10T07:59:34.056Z,82.00
2017-07-10T08:02:00.329Z,80.60
2017-07-10T08:04:26.603Z,78.80
2017-07-10T08:06:52.905Z,78.60
2017-07-10T08:09:19.215Z,78.70
2017-07-10T08:11:45.520Z,78.80
2017-07-10T08:14:11.858Z,77.50
2017-07-10T08:16:38.153Z,78.40
2017-07-10T08:19:04.408Z,79.10
2017-07-10T08:21:30.715Z,79.90
2017-07-10T08:23:57.020Z,78.90
2017-07-10T08:26:23.325Z,77.40
2017-07-10T08:28:49.624Z,77.10
2017-07-10T08:31:16.345Z,77.10
2017-07-10T08:33:42.689Z,77.10
2017-07-10T08:36:08.971Z,77.20
2017-07-10T08:38:35.287Z,76.70
2017-07-10T08:41:01.589Z,75.70
2017-07-10T08:43:27.902Z,74.70
2017-07-10T08:45:54.185Z,74.60
2017-07-10T08:48:20.516Z,76.30
2017-07-10T08:50:46.831Z,73.80
2017-07-10T08:53:13.128Z,74.80
2017-07-10T08:55:39.785Z,74.10
2017-07-10T08:58:06.086Z,74.10
2017-07-10T09:00:32.376Z,71.70
2017-07-10T09:02:58.692Z,73.60
2017-07-10T09:05:25.001Z,71.90
2017-07-10T09:07:51.316Z,72.30
2017-07-10T09:10:17.956Z,72.40
2017-07-10T09:12:44.265Z,72.50
2017-07-10T09:15:12.488Z,71.70
2017-07-10T09:17:38.990Z,71.90
2017-07-10T09:20:05.311Z,71.10
2017-07-10T09:22:31.598Z,71.60
2017-07-10T09:24:57.901Z,71.40
2017-07-10T09:27:24.194Z,71.60
2017-07-10T09:29:50.540Z,74.00
2017-07-10T09:32:16.855Z,73.10
2017-07-10T09:34:43.121Z,69.90
2017-07-10T09:37:09.463Z,69.60
2017-07-10T09:39:35.760Z,67.30
2017-07-10T09:42:02.398Z,67.30
2017-07-10T09:44:29.040Z,67.80
2017-07-10T09:46:55.656Z,65.60
2017-07-10T09:49:28.741Z,65.60
2017-07-10T09:51:55.043Z,66.50
2017-07-10T09:54:21.334Z,64.70
2017-07-10T09:56:47.637Z,67.90
2017-07-10T09:59:13.940Z,68.00
2017-07-10T10:01:40.201Z,65.70
2017-07-10T10:04:06.846Z,64.00
2017-07-10T10:06:33.491Z,63.70
2017-07-10T10:09:00.154Z,65.90
2017-07-10T10:11:26.410Z,66.00
2017-07-10T10:13:52.713Z,64.00
2017-07-10T10:16:18.991Z,64.30
2017-07-10T10:18:45.279Z,66.70
2017-07-10T10:21:11.561Z,63.70
2017-07-10T10:23:37.848Z,62.90
2017-07-10T10:26:04.123Z,64.60
2017-07-10T10:28:30.786Z,63.70
2017-07-10T10:30:57.134Z,63.70
2017-07-10T10:33:23.447Z,63.20
2017-07-10T10:35:49.795Z,63.00
2017-07-10T10:38:16.124Z,64.50
2017-07-10T10:40:42.422Z,64.60
2017-07-10T10:43:08.730Z,63.70
2017-07-10T10:45:35.013Z,61.90
2017-07-10T10:48:01.312Z,62.70
2017-07-10T10:50:27.920Z,63.60
2017-07-10T10:52:54.192Z,60.90
2017-07-10T10:55:21.493Z,59.40
2017-07-10T10:57:47.765Z,60.70
2017-07-10T11:00:14.063Z,60.90
2017-07-10T11:02:40.345Z,59.60
2017-07-10T11:05:06.621Z,59.50
2017-07-10T11:07:32.917Z,60.80
2017-07-10T11:09:59.253Z,61.30
2017-07-10T11:12:25.581Z,59.90
2017-07-10T11:14:51.907Z,61.00
2017-07-10T11:17:18.193Z,57.70
2017-07-10T11:19:44.875Z,55.70
2017-07-10T11:22:11.158Z,55.70
2017-07-10T11:24:37.457Z,56.90
2017-07-10T11:27:03.771Z,57.70
2017-07-10T11:29:30.107Z,57.10
2017-07-10T11:31:56.420Z,59.80
2017-07-10T11:34:22.680Z,53.20
2017-07-10T11:36:49.030Z,54.80
2017-07-10T11:39:15.327Z,54.40
2017-07-10T11:41:41.631Z,53.30
2017-07-10T11:44:07.952Z,53.40
2017-07-10T11:46:34.225Z,56.00
2017-07-10T11:49:00.530Z,57.70
2017-07-10T11:51:26.825Z,56.00
2017-07-10T11:53:53.458Z,56.70
2017-07-10T11:56:20.355Z,57.30
2017-07-10T11:58:46.731Z,57.30
2017-07-10T12:01:13.376Z,55.80
2017-07-10T12:03:40.030Z,54.70
2017-07-10T12:06:06.443Z,54.70
2017-07-10T12:08:33.092Z,51.10
2017-07-10T12:10:59.395Z,51.10
2017-07-10T12:13:25.656Z,49.90
2017-07-10T12:15:51.934Z,48.50
2017-07-10T12:18:19.071Z,46.50
2017-07-10T12:20:45.347Z,46.30
2017-07-10T12:23:11.602Z,45.70
2017-07-10T12:25:37.866Z,45.50
2017-07-10T12:28:04.117Z,45.80
2017-07-10T12:30:30.406Z,45.80
2017-07-10T12:32:56.630Z,48.40
2017-07-10T12:35:22.877Z,50.70
2017-07-10T12:37:49.123Z,49.30
2017-07-10T12:40:15.403Z,40.80
2017-07-10T12:42:41.740Z,37.30
2017-07-10T12:45:08.402Z,36.00
2017-07-10T12:47:34.678Z,35.90
2017-07-10T12:50:00.968Z,34.40
2017-07-10T12:52:27.247Z,33.90
2017-07-10T12:54:53.549Z,33.30
2017-07-10T12:57:19.862Z,34.40
2017-07-10T12:59:46.172Z,37.30
2017-07-10T13:02:12.465Z,40.60
2017-07-10T13:04:38.724Z,43.80
2017-07-10T13:07:04.991Z,46.90
2017-07-10T13:09:31.226Z,47.20
2017-07-10T13:11:57.509Z,45.30
2017-07-10T13:14:23.751Z,42.30
2017-07-10T13:16:50.082Z,40.00
2017-07-10T13:19:16.396Z,40.30
2017-07-10T13:21:42.692Z,34.80
2017-07-10T13:24:09.080Z,34.00
2017-07-10T13:26:35.381Z,31.70
2017-07-10T13:29:01.674Z,32.90
2017-07-10T13:31:28.317Z,30.10
2017-07-10T13:33:54.961Z,30.50
2017-07-10T13:36:21.251Z,30.50
2017-07-10T13:38:47.566Z,28.60
2017-07-10T13:41:13.926Z,28.40
2017-07-10T13:43:40.200Z,29.10
2017-07-10T13:46:06.537Z,28.40
2017-07-10T13:48:32.787Z,29.30
2017-07-10T13:50:59.067Z,33.60
2017-07-10T13:53:25.359Z,36.90
2017-07-10T13:55:51.656Z,39.90
2017-07-10T13:58:17.933Z,40.50
2017-07-10T14:00:44.248Z,43.40
2017-07-10T14:03:10.547Z,46.80
2017-07-10T14:05:36.880Z,50.40
2017-07-10T14:08:03.185Z,51.10
2017-07-10T14:10:29.505Z,51.30
2017-07-10T14:12:55.784Z,51.50
2017-07-10T14:15:22.097Z,51.20
2017-07-10T14:17:48.404Z,52.00
2017-07-10T14:20:14.729Z,53.50
2017-07-10T14:22:41.056Z,52.70
2017-07-10T14:25:07.341Z,48.70
2017-07-10T14:27:33.628Z,46.00
2017-07-10T14:29:59.930Z,43.90
2017-07-10T14:32:26.251Z,42.00
2017-07-10T14:34:52.525Z,40.00
2017-07-10T14:37:18.803Z,40.40
2017-07-10T14:39:45.066Z,37.90
2017-07-10T14:42:11.395Z,32.60
2017-07-10T14:44:37.736Z,33.10
2017-07-10T14:47:04.045Z,35.90
2017-07-10T14:49:30.691Z,37.40
2017-07-10T14:51:57.395Z,36.20
2017-07-10T14:54:23.664Z,36.20
2017-07-10T14:56:49.936Z,33.20
2017-07-10T14:59:16.199Z,32.30
2017-07-10T15:01:42.895Z,30.20
2017-07-10T15:04:09.193Z,30.20
2017-07-10T15:06:35.780Z,33.30
2017-07-10T15:09:02.060Z,34.60
2017-07-10T15:11:28.351Z,35.40
2017-07-10T15:13:54.648Z,38.50
2017-07-10T15:16:20.940Z,39.60
2017-07-10T15:18:47.221Z,40.00
2017-07-10T15:21:13.527Z,39.10
2017-07-10T15:23:39.845Z,42.50
2017-07-10T15:26:06.126Z,42.80
2017-07-10T15:28:32.407Z,42.10
2017-07-10T15:30:58.700Z,39.80
2017-07-10T15:33:25.020Z,36.40
2017-07-10T15:35:51.298Z,34.40
2017-07-10T15:38:17.578Z,34.00
2017-07-10T15:40:43.869Z,33.60
2017-07-10T15:43:10.167Z,33.60
2017-07-10T15:45:36.799Z,34.20
2017-07-10T15:48:03.119Z,34.20
2017-07-10T15:50:29.471Z,33.60
2017-07-10T15:52:55.780Z,32.00
2017-07-10T15:55:22.087Z,31.10
2017-07-10T15:57:48.418Z,33.10
2017-07-10T16:00:14.747Z,36.60
2017-07-10T16:02:41.090Z,38.70
2017-07-10T16:05:07.452Z,40.90
2017-07-10T16:07:34.761Z,42.70
2017-07-10T16:10:01.085Z,43.60
2017-07-10T16:12:27.418Z,44.90
2017-07-10T16:14:53.765Z,44.40
2017-07-10T16:17:21.297Z,46.50
2017-07-10T16:19:47.613Z,46.50
2017-07-10T16:22:14.865Z,46.60
2017-07-10T16:24:41.175Z,47.40
2017-07-10T16:27:07.517Z,47.30
2017-07-10T16:29:33.836Z,48.10
2017-07-10T16:32:00.123Z,48.50
2017-07-10T16:34:26.395Z,48.50
2017-07-10T16:36:52.729Z,48.40
2017-07-10T16:39:18.998Z,49.90
2017-07-10T16:41:45.298Z,49.80
2017-07-10T16:44:11.570Z,50.70
2017-07-10T16:46:37.842Z,50.90
2017-07-10T16:49:04.145Z,50.60
2017-07-10T16:51:30.464Z,50.70
2017-07-10T16:53:56.798Z,50.90
2017-07-10T16:56:23.073Z,51.30
2017-07-10T16:58:50.143Z,51.20
2017-07-10T17:01:16.457Z,51.30
2017-07-10T17:03:42.754Z,51.10
2017-07-10T17:06:09.092Z,52.20
2017-07-10T17:08:35.391Z,52.50
2017-07-10T17:11:01.738Z,53.40
2017-07-10T17:13:27.998Z,53.50
2017-07-10T17:15:54.291Z,52.30
2017-07-10T17:18:20.583Z,50.50
2017-07-10T17:20:46.878Z,50.00
2017-07-10T17:23:13.164Z,50.90
2017-07-10T17:25:39.430Z,51.40
2017-07-10T17:28:05.696Z,51.20
2017-07-10T17:30:31.980Z,51.10
2017-07-10T17:32:58.710Z,52.50
2017-07-10T17:35:25.071Z,52.50
2017-07-10T17:37:51.372Z,53.80
2017-07-10T17:40:17.660Z,53.90
2017-07-10T17:42:43.988Z,54.40
2017-07-10T17:45:10.298Z,54.80
2017-07-10T17:47:36.666Z,55.90
2017-07-10T17:50:03.026Z,55.70
2017-07-10T17:52:29.738Z,56.70
2017-07-10T17:54:56.035Z,56.70
2017-07-10T17:57:22.316Z,57.30
2017-07-10T17:59:48.620Z,57.20
2017-07-10T18:02:15.856Z,58.30
2017-07-10T18:04:42.414Z,58.90
2017-07-10T18:07:08.717Z,59.70
2017-07-10T18:09:35.029Z,59.40
2017-07-10T18:12:01.371Z,60.10
2017-07-10T18:14:27.649Z,60.30
2017-07-10T18:16:53.948Z,60.80
2017-07-10T18:19:20.239Z,61.30
2017-07-10T18:21:46.589Z,61.50
2017-07-10T18:24:12.945Z,61.60
2017-07-10T18:26:40.286Z,61.60
2017-07-10T18:29:06.709Z,63.00
2017-07-10T18:31:33.012Z,64.50
2017-07-10T18:33:59.342Z,64.80
2017-07-10T18:36:25.599Z,64.20
2017-07-10T18:38:51.964Z,64.50
2017-07-10T18:41:18.250Z,65.40
2017-07-10T18:43:45.479Z,65.60
2017-07-10T18:46:12.237Z,66.70
2017-07-10T18:48:38.577Z,64.50
2017-07-10T18:51:04.895Z,63.90
2017-07-10T18:53:31.364Z,63.70
2017-07-10T18:55:57.663Z,63.40
2017-07-10T18:58:24.597Z,63.30
2017-07-10T19:00:50.887Z,63.80
2017-07-10T19:03:17.520Z,63.30
2017-07-10T19:05:43.885Z,63.50
2017-07-10T19:08:10.605Z,63.80
2017-07-10T19:10:37.242Z,63.80
2017-07-10T19:15:36.447Z,64.50
2017-07-10T19:18:02.783Z,64.30
2017-07-10T19:20:29.082Z,65.20
2017-07-10T19:22:55.687Z,65.40
2017-07-10T19:25:23.402Z,65.70
2017-07-10T19:27:49.744Z,66.80
2017-07-10T19:30:16.701Z,66.70
2017-07-10T19:32:43.069Z,67.00
2017-07-10T19:35:09.615Z,67.20
2017-07-10T19:37:36.552Z,67.60
2017-07-10T19:40:02.887Z,67.40
2017-07-10T19:42:29.352Z,67.80
2017-07-10T19:44:55.816Z,68.20
2017-07-10T19:47:22.582Z,68.00
2017-07-10T19:49:49.245Z,68.00
2017-07-10T19:52:15.579Z,67.90
2017-07-10T19:54:42.006Z,68.30
2017-07-10T19:57:08.399Z,69.30
2017-07-10T19:59:34.770Z,69.70
2017-07-10T20:02:01.190Z,70.00
2017-07-10T20:04:27.791Z,70.00
2017-07-10T20:06:54.130Z,69.10
2017-07-10T20:09:20.438Z,69.80
2017-07-10T20:11:47.735Z,68.80
2017-07-10T20:14:14.075Z,68.00
2017-07-10T20:16:40.454Z,69.10
2017-07-10T20:19:06.814Z,67.30
2017-07-10T20:21:33.133Z,67.50
2017-07-10T20:23:59.473Z,67.70
2017-07-10T20:26:26.443Z,68.20
2017-07-10T20:28:52.849Z,69.00
2017-07-10T20:31:19.173Z,69.90
2017-07-10T20:33:45.494Z,71.00
2017-07-10T20:36:12.148Z,71.50
2017-07-10T20:38:38.468Z,71.50
2017-07-10T20:41:04.778Z,71.70
2017-07-10T20:43:31.102Z,72.10
2017-07-10T20:45:58.310Z,72.50
2017-07-10T20:48:24.627Z,72.30
2017-07-10T20:50:51.015Z,72.00
2017-07-10T20:53:17.306Z,72.40
2017-07-10T20:55:43.650Z,72.40
2017-07-10T20:58:09.941Z,72.60
2017-07-10T21:00:36.236Z,72.40
2017-07-10T21:03:02.531Z,72.90
2017-07-10T21:05:28.851Z,73.30
2017-07-10T21:07:55.189Z,73.90
2017-07-10T21:10:21.712Z,74.30
2017-07-10T21:12:48.081Z,75.00
2017-07-10T21:15:14.390Z,76.40
2017-07-10T21:17:40.702Z,75.40
2017-07-10T21:20:07.047Z,75.40
2017-07-10T21:22:33.358Z,75.40
2017-07-10T21:24:59.676Z,75.00
2017-07-10T21:27:25.969Z,75.30
2017-07-10T21:29:52.271Z,75.40
2017-07-10T21:32:18.599Z,75.80
2017-07-10T21:34:44.869Z,75.20
2017-07-10T21:37:11.173Z,75.20
2017-07-10T21:39:37.427Z,74.10
2017-07-10T21:42:03.763Z,74.70
2017-07-10T21:44:30.425Z,74.60
2017-07-10T21:46:56.719Z,74.60
2017-07-10T21:49:23.050Z,74.50
2017-07-10T21:51:50.154Z,75.20
2017-07-10T21:54:16.455Z,75.30
2017-07-10T21:56:42.757Z,76.30
2017-07-10T21:59:09.011Z,79.40
2017-07-10T22:01:35.702Z,82.90
2017-07-10T22:04:02.000Z,82.90
2017-07-10T22:06:28.330Z,84.30
2017-07-10T22:08:54.593Z,86.30
2017-07-10T22:11:20.883Z,89.40
2017-07-10T22:13:47.200Z,93.60
2017-07-10T22:16:13.844Z,94.80
2017-07-10T22:18:40.130Z,94.80
2017-07-10T22:21:06.452Z,92.50
2017-07-10T22:23:32.739Z,94.00
2017-07-10T22:25:59.045Z,94.40
2017-07-10T22:28:25.297Z,94.40
2017-07-10T22:30:51.597Z,94.00
2017-07-10T22:33:18.250Z,93.30
2017-07-10T22:35:45.462Z,93.30
2017-07-10T22:38:11.804Z,93.00
2017-07-10T22:40:38.072Z,93.80
2017-07-10T22:43:04.370Z,92.90
2017-07-10T22:45:30.650Z,90.70
2017-07-10T22:47:56.959Z,91.50
2017-07-10T22:50:23.229Z,92.00
2017-07-10T22:52:49.533Z,92.00
2017-07-10T22:55:15.838Z,91.60
2017-07-10T22:57:42.107Z,90.60
2017-07-10T23:00:08.412Z,91.60
2017-07-10T23:02:34.765Z,91.10
2017-07-10T23:05:01.028Z,91.50
2017-07-10T23:07:27.347Z,90.90
2017-07-10T23:09:53.615Z,91.10
2017-07-10T23:12:19.917Z,88.70
2017-07-10T23:14:46.178Z,89.90
2017-07-10T23:17:12.460Z,90.00
2017-07-10T23:19:38.736Z,89.40
2017-07-10T23:22:06.782Z,90.50
2017-07-10T23:24:33.062Z,90.30
2017-07-10T23:26:59.338Z,91.90
2017-07-10T23:29:25.601Z,91.80
2017-07-10T23:31:51.873Z,90.20
2017-07-10T23:34:18.162Z,90.30
2017-07-10T23:36:44.462Z,89.90
2017-07-10T23:39:10.749Z,88.10
2017-07-10T23:41:37.032Z,89.50
2017-07-10T23:44:03.339Z,88.90
2017-07-10T23:46:29.604Z,88.40
2017-07-10T23:48:55.907Z,89.10
2017-07-10T23:51:22.190Z,89.30
2017-07-10T23:53:48.487Z,89.80
2017-07-10T23:56:14.778Z,90.20
2017-07-10T23:58:41.082Z,89.90
